createdAt,value
2018-02-12T00:00:37.543Z,89.92
2018-02-12T00:03:05.166Z,90.09
2018-02-12T00:05:32.746Z,90.15
2018-02-12T00:08:00.306Z,90.14
2018-02-12T00:10:27.922Z,90.13
2018-02-12T00:12:55.486Z,90.08
2018-02-12T00:15:23.059Z,90.09
2018-02-12T00:17:50.640Z,90.00
2018-02-12T00:20:18.239Z,89.90
2018-02-12T00:22:45.915Z,89.87
2018-02-12T00:25:13.482Z,89.85
2018-02-12T00:27:41.064Z,89.79
2018-02-12T00:30:08.736Z,89.80
2018-02-12T00:32:36.298Z,89.90
2018-02-12T00:35:03.964Z,89.89
2018-02-12T00:37:31.527Z,89.66
2018-02-12T00:39:59.147Z,89.38
2018-02-12T00:42:26.714Z,89.31
2018-02-12T00:44:55.508Z,89.34
2018-02-12T00:47:23.177Z,89.32
2018-02-12T00:49:50.737Z,89.36
2018-02-12T00:52:18.298Z,89.39
2018-02-12T00:54:45.870Z,89.25
2018-02-12T00:57:13.495Z,89.17
2018-02-12T00:59:41.177Z,89.13
2018-02-12T01:02:08.754Z,89.06
2018-02-12T01:04:36.318Z,89.06
2018-02-12T01:07:03.967Z,88.99
2018-02-12T01:09:31.587Z,88.97
2018-02-12T01:11:59.218Z,89.02
2018-02-12T01:14:26.804Z,89.04
2018-02-12T01:16:54.431Z,88.92
2018-02-12T01:19:22.000Z,88.91
2018-02-12T01:21:49.625Z,88.78
2018-02-12T01:24:17.199Z,88.71
2018-02-12T01:26:44.757Z,88.55
2018-02-12T01:29:16.064Z,88.46
2018-02-12T01:31:43.679Z,88.35
2018-02-12T01:34:11.320Z,88.18
2018-02-12T01:36:38.890Z,88.27
2018-02-12T01:39:06.454Z,88.41
2018-02-12T01:41:34.075Z,88.61
2018-02-12T01:44:01.671Z,88.72
2018-02-12T01:46:29.258Z,88.50
2018-02-12T01:48:56.865Z,88.42
2018-02-12T01:51:24.513Z,88.42
2018-02-12T01:53:52.135Z,88.44
2018-02-12T01:56:19.767Z,88.54
2018-02-12T01:58:47.392Z,88.56
2018-02-12T02:01:15.027Z,88.56
2018-02-12T02:03:42.676Z,88.66
2018-02-12T02:06:10.238Z,88.63
2018-02-12T02:08:37.874Z,88.60
2018-02-12T02:11:05.442Z,88.51
2018-02-12T02:13:33.103Z,88.59
2018-02-12T02:16:00.896Z,88.56
2018-02-12T02:18:28.509Z,88.63
2018-02-12T02:20:56.165Z,88.83
2018-02-12T02:23:23.709Z,88.87
2018-02-12T02:25:51.259Z,88.83
2018-02-12T02:28:18.814Z,88.95
2018-02-12T02:30:46.445Z,89.02
2018-02-12T02:33:14.006Z,88.99
2018-02-12T02:35:41.670Z,89.09
2018-02-12T02:38:09.294Z,89.27
2018-02-12T02:40:36.919Z,89.06
2018-02-12T02:43:04.491Z,89.14
2018-02-12T02:45:32.068Z,89.22
2018-02-12T02:47:59.686Z,89.07
2018-02-12T02:50:27.255Z,89.07
2018-02-12T02:52:54.873Z,89.03
2018-02-12T02:55:22.441Z,88.93
2018-02-12T02:57:50.067Z,89.04
2018-02-12T03:00:17.698Z,89.14
2018-02-12T03:02:45.263Z,89.20
2018-02-12T03:05:12.882Z,89.15
2018-02-12T03:07:40.446Z,89.08
2018-02-12T03:10:08.001Z,88.92
2018-02-12T03:12:35.571Z,89.00
2018-02-12T03:15:03.137Z,89.03
2018-02-12T03:17:30.716Z,89.01
2018-02-12T03:19:58.282Z,88.97
2018-02-12T03:22:25.966Z,88.96
2018-02-12T03:24:53.709Z,88.82
2018-02-12T03:27:21.301Z,88.83
2018-02-12T03:29:48.945Z,88.94
2018-02-12T03:32:16.509Z,89.07
2018-02-12T03:34:44.074Z,89.25
2018-02-12T03:37:11.696Z,89.34
2018-02-12T03:39:39.309Z,89.27
2018-02-12T03:42:06.869Z,89.03
2018-02-12T03:44:34.414Z,88.86
2018-02-12T03:47:02.036Z,88.86
2018-02-12T03:49:29.579Z,88.80
2018-02-12T03:51:57.149Z,88.72
2018-02-12T03:54:24.819Z,88.80
2018-02-12T03:56:52.506Z,88.84
2018-02-12T03:59:20.129Z,88.80
2018-02-12T04:01:47.698Z,88.81
2018-02-12T04:04:15.280Z,88.79
2018-02-12T04:06:42.910Z,88.98
2018-02-12T04:09:10.562Z,89.00
2018-02-12T04:11:38.125Z,88.93
2018-02-12T04:14:05.754Z,88.76
2018-02-12T04:16:33.310Z,88.78
2018-02-12T04:19:00.885Z,88.80
2018-02-12T04:21:28.515Z,88.81
2018-02-12T04:23:56.134Z,88.86
2018-02-12T04:26:23.705Z,88.87
2018-02-12T04:28:51.313Z,88.96
2018-02-12T04:31:19.004Z,88.97
2018-02-12T04:33:46.649Z,88.94
2018-02-12T04:36:14.214Z,88.84
2018-02-12T04:38:41.786Z,88.53
2018-02-12T04:41:09.411Z,88.51
2018-02-12T04:43:36.981Z,88.55
2018-02-12T04:46:04.537Z,88.42
2018-02-12T04:48:32.177Z,88.35
2018-02-12T04:50:59.747Z,88.27
2018-02-12T04:53:27.309Z,88.33
2018-02-12T04:55:54.880Z,88.36
2018-02-12T04:58:22.498Z,88.44
2018-02-12T05:00:50.084Z,88.40
2018-02-12T05:03:17.627Z,88.36
2018-02-12T05:05:45.253Z,87.99
2018-02-12T05:08:12.893Z,88.00
2018-02-12T05:10:40.546Z,88.09
2018-02-12T05:13:08.128Z,88.09
2018-02-12T05:15:35.675Z,88.06
2018-02-12T05:18:03.298Z,87.89
2018-02-12T05:20:30.859Z,87.71
2018-02-12T05:22:58.463Z,87.55
2018-02-12T05:25:26.026Z,87.61
2018-02-12T05:27:53.585Z,87.75
2018-02-12T05:30:21.222Z,87.76
2018-02-12T05:32:48.852Z,87.90
2018-02-12T05:35:16.557Z,88.00
2018-02-12T05:37:44.130Z,88.06
2018-02-12T05:40:11.758Z,88.06
2018-02-12T05:42:39.398Z,88.02
2018-02-12T05:45:06.961Z,87.91
2018-02-12T05:47:34.579Z,87.92
2018-02-12T05:50:02.140Z,87.96
2018-02-12T05:52:29.702Z,87.82
2018-02-12T05:54:57.254Z,87.86
2018-02-12T05:57:24.815Z,87.93
2018-02-12T05:59:52.390Z,88.07
2018-02-12T06:02:20.015Z,87.97
2018-02-12T06:04:47.725Z,88.00
2018-02-12T06:07:15.286Z,87.99
2018-02-12T06:09:42.912Z,87.98
2018-02-12T06:12:10.465Z,87.88
2018-02-12T06:14:38.010Z,87.54
2018-02-12T06:17:05.582Z,87.49
2018-02-12T06:19:33.203Z,87.60
2018-02-12T06:22:00.800Z,87.67
2018-02-12T06:24:28.358Z,87.50
2018-02-12T06:26:55.933Z,87.24
2018-02-12T06:29:23.510Z,86.91
2018-02-12T06:31:51.070Z,86.66
2018-02-12T06:34:18.698Z,86.33
2018-02-12T06:36:46.318Z,85.96
2018-02-12T06:39:13.937Z,85.76
2018-02-12T06:41:41.505Z,85.52
2018-02-12T06:44:09.069Z,85.41
2018-02-12T06:46:36.637Z,85.16
2018-02-12T06:49:04.200Z,84.68
2018-02-12T06:51:31.792Z,84.71
2018-02-12T06:53:59.353Z,84.55
2018-02-12T06:56:26.982Z,83.65
2018-02-12T06:58:54.537Z,83.30
2018-02-12T07:01:22.158Z,82.93
2018-02-12T07:03:49.743Z,82.68
2018-02-12T07:06:17.319Z,81.98
2018-02-12T07:08:44.950Z,81.98
2018-02-12T07:11:12.555Z,81.06
2018-02-12T07:13:40.235Z,80.69
2018-02-12T07:16:07.863Z,79.96
2018-02-12T07:18:35.428Z,79.25
2018-02-12T07:21:02.998Z,79.43
2018-02-12T07:23:30.575Z,79.23
2018-02-12T07:25:58.132Z,79.53
2018-02-12T07:28:25.746Z,78.94
2018-02-12T07:30:53.374Z,79.26
2018-02-12T07:33:20.998Z,79.23
2018-02-12T07:35:48.605Z,79.08
2018-02-12T07:38:16.181Z,78.40
2018-02-12T07:40:43.741Z,78.57
2018-02-12T07:43:11.317Z,78.70
2018-02-12T07:45:38.893Z,78.49
2018-02-12T07:48:06.537Z,78.56
2018-02-12T07:50:34.110Z,77.93
2018-02-12T07:53:01.750Z,78.02
2018-02-12T07:55:29.329Z,77.68
2018-02-12T07:57:56.960Z,77.16
2018-02-12T08:00:24.542Z,76.67
2018-02-12T08:02:52.132Z,76.69
2018-02-12T08:05:19.756Z,77.49
2018-02-12T08:07:47.306Z,77.56
2018-02-12T08:10:14.878Z,77.67
2018-02-12T08:12:42.480Z,77.38
2018-02-12T08:15:10.857Z,76.56
2018-02-12T08:17:38.435Z,74.45
2018-02-12T08:20:06.015Z,73.17
2018-02-12T08:22:33.637Z,73.22
2018-02-12T08:25:01.206Z,72.53
2018-02-12T08:27:28.782Z,71.62
2018-02-12T08:29:56.364Z,71.69
2018-02-12T08:32:23.987Z,70.25
2018-02-12T08:34:51.634Z,70.74
2018-02-12T08:37:19.205Z,70.71
2018-02-12T08:39:46.868Z,71.36
2018-02-12T08:42:14.507Z,72.63
2018-02-12T08:44:42.078Z,71.88
2018-02-12T08:47:09.660Z,72.62
2018-02-12T08:49:37.230Z,72.89
2018-02-12T08:52:04.909Z,72.11
2018-02-12T08:54:32.494Z,71.07
2018-02-12T08:57:00.159Z,70.71
2018-02-12T08:59:27.748Z,69.60
2018-02-12T09:01:55.332Z,68.58
2018-02-12T09:04:22.930Z,67.51
2018-02-12T09:06:50.565Z,67.80
2018-02-12T09:09:18.138Z,68.18
2018-02-12T09:11:45.718Z,68.85
2018-02-12T09:14:13.335Z,67.49
2018-02-12T09:16:40.967Z,66.79
2018-02-12T09:19:08.602Z,67.38
2018-02-12T09:21:36.249Z,68.46
2018-02-12T09:24:03.827Z,68.75
2018-02-12T09:26:31.508Z,69.06
2018-02-12T09:28:59.078Z,69.32
2018-02-12T09:31:26.646Z,68.62
2018-02-12T09:33:54.225Z,69.32
2018-02-12T09:36:21.839Z,69.30
2018-02-12T09:38:49.458Z,70.95
2018-02-12T09:41:17.021Z,72.07
2018-02-12T09:43:44.589Z,70.32
2018-02-12T09:46:12.193Z,69.21
2018-02-12T09:48:39.765Z,69.64
2018-02-12T09:51:07.402Z,69.52
2018-02-12T09:53:34.974Z,67.80
2018-02-12T09:56:02.620Z,68.69
2018-02-12T09:58:30.204Z,68.08
2018-02-12T10:00:57.785Z,66.99
2018-02-12T10:03:25.433Z,66.59
2018-02-12T10:05:53.054Z,67.15
2018-02-12T10:08:21.487Z,66.68
2018-02-12T10:10:49.051Z,67.40
2018-02-12T10:13:16.738Z,67.08
2018-02-12T10:15:44.354Z,67.90
2018-02-12T10:18:11.978Z,66.37
2018-02-12T10:20:39.553Z,66.46
2018-02-12T10:23:07.118Z,64.09
2018-02-12T10:25:34.692Z,64.68
2018-02-12T10:28:02.274Z,64.42
2018-02-12T10:30:29.898Z,63.06
2018-02-12T10:32:57.519Z,63.05
2018-02-12T10:35:25.139Z,60.85
2018-02-12T10:37:52.722Z,61.43
2018-02-12T10:40:20.297Z,60.82
2018-02-12T10:42:47.914Z,61.08
2018-02-12T10:45:15.535Z,60.92
2018-02-12T10:47:43.205Z,59.80
2018-02-12T10:50:10.771Z,61.80
2018-02-12T10:52:38.338Z,62.53
2018-02-12T10:55:05.928Z,61.43
2018-02-12T10:57:33.490Z,61.03
2018-02-12T11:00:01.131Z,60.85
2018-02-12T11:02:28.709Z,61.83
2018-02-12T11:04:56.419Z,62.42
2018-02-12T11:07:23.986Z,59.65
2018-02-12T11:09:51.554Z,58.90
2018-02-12T11:12:19.138Z,60.83
2018-02-12T11:14:46.713Z,59.44
2018-02-12T11:17:14.355Z,59.80
2018-02-12T11:19:41.941Z,59.76
2018-02-12T11:22:09.486Z,58.14
2018-02-12T11:24:37.058Z,58.72
2018-02-12T11:27:04.688Z,57.44
2018-02-12T11:29:32.351Z,57.82
2018-02-12T11:32:00.027Z,59.09
2018-02-12T11:34:27.654Z,57.57
2018-02-12T11:36:55.250Z,59.35
2018-02-12T11:39:22.869Z,58.72
2018-02-12T11:41:50.502Z,58.54
2018-02-12T11:44:18.140Z,59.08
2018-02-12T11:46:45.712Z,59.05
2018-02-12T11:49:13.298Z,59.12
2018-02-12T11:51:40.870Z,59.11
2018-02-12T11:54:08.507Z,59.68
2018-02-12T11:56:36.070Z,60.35
2018-02-12T11:59:03.702Z,59.14
2018-02-12T12:01:31.332Z,56.42
2018-02-12T12:03:58.905Z,55.82
2018-02-12T12:06:26.477Z,58.87
2018-02-12T12:08:54.039Z,59.57
2018-02-12T12:11:21.618Z,58.91
2018-02-12T12:13:49.244Z,60.90
2018-02-12T12:16:16.876Z,58.16
2018-02-12T12:18:44.445Z,57.18
2018-02-12T12:21:12.019Z,55.03
2018-02-12T12:23:39.651Z,55.67
2018-02-12T12:26:07.279Z,54.36
2018-02-12T12:28:34.914Z,54.77
2018-02-12T12:31:02.553Z,54.52
2018-02-12T12:33:30.181Z,54.24
2018-02-12T12:35:57.750Z,58.38
2018-02-12T12:38:25.387Z,58.86
2018-02-12T12:40:53.198Z,58.01
2018-02-12T12:43:20.826Z,59.07
2018-02-12T12:45:48.454Z,58.26
2018-02-12T12:48:16.024Z,56.67
2018-02-12T12:50:43.717Z,59.71
2018-02-12T12:53:11.279Z,55.57
2018-02-12T12:55:38.851Z,55.54
2018-02-12T12:58:06.434Z,56.49
2018-02-12T13:00:34.002Z,57.16
2018-02-12T13:03:01.567Z,57.79
2018-02-12T13:05:29.190Z,57.20
2018-02-12T13:07:56.903Z,57.45
2018-02-12T13:10:24.527Z,58.74
2018-02-12T13:12:52.086Z,60.59
2018-02-12T13:15:19.708Z,59.65
2018-02-12T13:17:47.588Z,60.61
2018-02-12T13:20:15.223Z,60.88
2018-02-12T13:22:42.853Z,60.85
2018-02-12T13:25:10.472Z,60.94
2018-02-12T13:27:38.091Z,60.53
2018-02-12T13:30:05.720Z,62.26
2018-02-12T13:32:33.315Z,62.47
2018-02-12T13:35:00.892Z,61.71
2018-02-12T13:37:28.488Z,63.26
2018-02-12T13:39:56.118Z,63.20
2018-02-12T13:42:23.747Z,63.55
2018-02-12T13:44:51.312Z,63.73
2018-02-12T13:47:18.895Z,63.15
2018-02-12T13:49:46.607Z,64.00
2018-02-12T13:52:14.210Z,62.58
2018-02-12T13:54:41.808Z,62.98
2018-02-12T13:57:09.461Z,64.15
2018-02-12T13:59:37.193Z,62.28
2018-02-12T14:02:04.795Z,64.40
2018-02-12T14:04:32.379Z,66.04
2018-02-12T14:07:00.023Z,63.15
2018-02-12T14:09:27.590Z,63.72
2018-02-12T14:11:55.279Z,63.70
2018-02-12T14:14:22.846Z,63.37
2018-02-12T14:16:50.599Z,64.01
2018-02-12T14:19:18.214Z,64.76
2018-02-12T14:21:45.842Z,63.90
2018-02-12T14:24:13.486Z,63.09
2018-02-12T14:26:41.061Z,64.11
2018-02-12T14:29:08.626Z,66.11
2018-02-12T14:31:36.181Z,65.44
2018-02-12T14:34:03.806Z,66.65
2018-02-12T14:36:31.377Z,67.11
2018-02-12T14:38:58.996Z,67.34
2018-02-12T14:41:26.569Z,67.48
2018-02-12T14:43:54.139Z,68.78
2018-02-12T14:46:21.739Z,68.54
2018-02-12T14:48:49.323Z,68.07
2018-02-12T14:51:17.403Z,68.18
2018-02-12T14:53:44.988Z,68.22
2018-02-12T14:56:12.563Z,67.58
2018-02-12T14:58:40.154Z,67.66
2018-02-12T15:01:07.755Z,67.97
2018-02-12T15:03:35.333Z,68.67
2018-02-12T15:06:02.902Z,68.95
2018-02-12T15:08:30.682Z,69.28
2018-02-12T15:10:59.013Z,69.81
2018-02-12T15:13:26.590Z,69.99
2018-02-12T15:15:54.170Z,69.84
2018-02-12T15:18:21.806Z,69.44
2018-02-12T15:20:49.458Z,69.62
2018-02-12T15:23:17.119Z,69.86
2018-02-12T15:25:44.891Z,69.49
2018-02-12T15:28:12.518Z,69.16
2018-02-12T15:30:40.083Z,69.94
2018-02-12T15:33:07.651Z,70.38
2018-02-12T15:35:35.277Z,70.38
2018-02-12T15:38:03.424Z,70.38
2018-02-12T15:40:31.017Z,70.42
2018-02-12T15:42:58.650Z,70.29
2018-02-12T15:45:26.267Z,70.33
2018-02-12T15:47:53.879Z,70.90
2018-02-12T15:50:21.522Z,70.92
2018-02-12T15:52:49.157Z,71.25
2018-02-12T15:55:16.734Z,71.27
2018-02-12T15:57:44.307Z,71.67
2018-02-12T16:00:11.964Z,72.37
2018-02-12T16:02:39.546Z,72.71
2018-02-12T16:05:07.121Z,73.23
2018-02-12T16:07:34.751Z,73.39
2018-02-12T16:10:02.337Z,74.32
2018-02-12T16:12:29.926Z,75.15
2018-02-12T16:15:10.204Z,75.75
2018-02-12T16:17:37.939Z,76.48
2018-02-12T16:20:05.610Z,77.27
2018-02-12T16:22:33.240Z,77.95
2018-02-12T16:25:00.858Z,77.88
2018-02-12T16:27:28.478Z,77.91
2018-02-12T16:29:56.112Z,77.79
2018-02-12T16:32:23.781Z,77.88
2018-02-12T16:34:51.509Z,78.01
2018-02-12T16:37:19.090Z,78.23
2018-02-12T16:39:46.700Z,78.24
2018-02-12T16:42:14.287Z,78.55
2018-02-12T16:44:41.970Z,78.56
2018-02-12T16:47:09.643Z,78.61
2018-02-12T16:49:37.224Z,78.73
2018-02-12T16:52:04.943Z,79.07
2018-02-12T16:54:32.538Z,79.40
2018-02-12T16:57:00.131Z,79.81
2018-02-12T16:59:27.731Z,79.86
2018-02-12T17:01:55.309Z,80.25
2018-02-12T17:04:22.895Z,80.60
2018-02-12T17:06:50.476Z,80.57
2018-02-12T17:09:18.798Z,80.71
2018-02-12T17:11:46.457Z,80.88
2018-02-12T17:14:14.095Z,81.17
2018-02-12T17:16:42.248Z,81.42
2018-02-12T17:19:09.879Z,81.84
2018-02-12T17:21:37.514Z,82.29
2018-02-12T17:24:05.087Z,82.50
2018-02-12T17:26:32.775Z,82.80
2018-02-12T17:29:01.223Z,82.94
2018-02-12T17:31:28.821Z,83.45
2018-02-12T17:33:56.472Z,83.76
2018-02-12T17:36:24.335Z,84.00
2018-02-12T17:38:52.096Z,84.20
2018-02-12T17:41:19.722Z,84.29
2018-02-12T17:43:47.330Z,84.64
2018-02-12T17:46:14.915Z,84.99
2018-02-12T17:48:42.491Z,85.17
2018-02-12T17:51:10.073Z,85.30
2018-02-12T17:53:37.658Z,85.36
2018-02-12T17:56:05.248Z,85.35
2018-02-12T17:58:32.813Z,85.30
2018-02-12T18:01:00.452Z,85.21
2018-02-12T18:03:28.078Z,85.03
2018-02-12T18:05:55.644Z,85.02
2018-02-12T18:08:23.871Z,85.17
2018-02-12T18:10:51.668Z,85.45
2018-02-12T18:13:19.258Z,85.81
2018-02-12T18:15:46.891Z,86.04
2018-02-12T18:18:14.518Z,86.06
2018-02-12T18:20:42.093Z,85.96
2018-02-12T18:23:09.666Z,85.67
2018-02-12T18:25:37.238Z,85.36
2018-02-12T18:28:05.311Z,85.03
2018-02-12T18:30:32.930Z,85.35
2018-02-12T18:33:00.519Z,85.33
2018-02-12T18:35:28.165Z,85.30
2018-02-12T18:37:55.734Z,85.43
2018-02-12T18:40:24.219Z,85.66
2018-02-12T18:42:51.862Z,85.78
2018-02-12T18:45:19.434Z,85.93
2018-02-12T18:47:47.130Z,86.08
2018-02-12T18:50:14.710Z,86.26
2018-02-12T18:52:43.679Z,86.51
2018-02-12T18:55:11.253Z,86.45
2018-02-12T18:57:38.888Z,86.49
2018-02-12T19:00:06.510Z,86.40
2018-02-12T19:02:34.123Z,86.54
2018-02-12T19:05:01.818Z,86.53
2018-02-12T19:07:29.450Z,86.55
2018-02-12T19:09:57.181Z,86.69
2018-02-12T19:12:24.814Z,86.93
2018-02-12T19:14:52.382Z,87.36
2018-02-12T19:17:19.971Z,87.47
2018-02-12T19:19:47.569Z,87.57
2018-02-12T19:22:15.166Z,87.75
2018-02-12T19:24:42.738Z,87.79
2018-02-12T19:27:10.374Z,87.92
2018-02-12T19:29:37.945Z,87.95
2018-02-12T19:32:05.509Z,87.98
2018-02-12T19:34:33.094Z,88.32
2018-02-12T19:37:00.665Z,88.46
2018-02-12T19:39:28.227Z,88.48
2018-02-12T19:41:56.540Z,88.45
2018-02-12T19:44:24.190Z,88.48
2018-02-12T19:46:51.766Z,88.58
2018-02-12T19:49:19.357Z,88.91
2018-02-12T19:51:46.981Z,89.05
2018-02-12T19:54:14.643Z,88.98
2018-02-12T19:56:42.278Z,88.99
2018-02-12T19:59:09.850Z,88.83
2018-02-12T20:01:37.432Z,88.89
2018-02-12T20:04:05.060Z,89.04
2018-02-12T20:06:32.638Z,89.21
2018-02-12T20:09:00.256Z,89.28
2018-02-12T20:11:27.882Z,89.34
2018-02-12T20:13:55.464Z,89.53
2018-02-12T20:16:23.055Z,89.66
2018-02-12T20:18:50.612Z,89.72
2018-02-12T20:21:18.336Z,89.63
2018-02-12T20:23:45.958Z,89.55
2018-02-12T20:26:13.522Z,89.78
2018-02-12T20:28:41.111Z,90.06
2018-02-12T20:31:08.675Z,90.35
2018-02-12T20:33:36.247Z,90.30
2018-02-12T20:36:04.053Z,90.49
2018-02-12T20:38:31.630Z,90.58
2018-02-12T20:40:59.278Z,90.35
2018-02-12T20:43:26.862Z,90.38
2018-02-12T20:45:54.491Z,90.44
2018-02-12T20:48:22.150Z,90.50
2018-02-12T20:50:49.739Z,90.61
2018-02-12T20:53:17.314Z,90.83
2018-02-12T20:55:44.941Z,90.99
2018-02-12T20:58:12.502Z,90.97
2018-02-12T21:00:40.078Z,91.00
2018-02-12T21:03:07.695Z,90.99
2018-02-12T21:05:35.270Z,90.93
2018-02-12T21:08:02.838Z,90.89
2018-02-12T21:10:30.409Z,90.69
2018-02-12T21:12:57.969Z,90.68
2018-02-12T21:15:25.547Z,90.68
2018-02-12T21:17:53.127Z,90.66
2018-02-12T21:20:20.754Z,90.64
2018-02-12T21:22:48.325Z,90.54
2018-02-12T21:25:15.954Z,90.60
2018-02-12T21:27:43.527Z,90.64
2018-02-12T21:30:11.142Z,90.83
2018-02-12T21:32:38.797Z,91.14
2018-02-12T21:35:06.368Z,91.29
2018-02-12T21:37:34.025Z,91.27
2018-02-12T21:40:01.587Z,91.22
2018-02-12T21:42:29.151Z,91.13
2018-02-12T21:44:56.726Z,90.94
2018-02-12T21:47:24.341Z,90.62
2018-02-12T21:49:51.910Z,90.55
2018-02-12T21:52:19.482Z,90.64
2018-02-12T21:54:47.103Z,90.84
2018-02-12T21:57:14.726Z,91.03
2018-02-12T21:59:42.347Z,91.30
2018-02-12T22:02:09.958Z,90.96
2018-02-12T22:04:37.521Z,90.96
2018-02-12T22:07:05.142Z,91.29
2018-02-12T22:09:32.720Z,91.43
2018-02-12T22:12:00.343Z,91.64
2018-02-12T22:14:27.902Z,91.94
2018-02-12T22:16:55.466Z,92.15
2018-02-12T22:19:23.042Z,92.35
2018-02-12T22:21:50.589Z,92.54
2018-02-12T22:24:18.248Z,92.55
2018-02-12T22:26:45.884Z,92.36
2018-02-12T22:29:13.497Z,92.39
2018-02-12T22:31:41.053Z,92.36
2018-02-12T22:34:08.614Z,92.17
2018-02-12T22:36:36.281Z,91.79
2018-02-12T22:39:03.947Z,91.25
2018-02-12T22:41:31.513Z,91.04
2018-02-12T22:43:59.079Z,90.97
2018-02-12T22:46:26.696Z,90.86
2018-02-12T22:48:54.260Z,90.22
2018-02-12T22:51:21.883Z,90.07
2018-02-12T22:53:49.515Z,90.01
2018-02-12T22:56:17.086Z,89.99
2018-02-12T22:58:44.717Z,90.00
2018-02-12T23:01:12.274Z,89.94
2018-02-12T23:03:39.898Z,89.98
2018-02-12T23:06:07.453Z,89.99
2018-02-12T23:08:35.009Z,89.94
2018-02-12T23:11:02.637Z,90.08
2018-02-12T23:13:30.189Z,89.87
2018-02-12T23:15:57.791Z,89.84
2018-02-12T23:18:25.349Z,90.06
2018-02-12T23:20:52.937Z,90.23
2018-02-12T23:23:20.558Z,90.58
2018-02-12T23:25:48.268Z,90.62
2018-02-12T23:28:15.827Z,90.22
2018-02-12T23:30:43.397Z,90.02
2018-02-12T23:33:11.007Z,90.24
2018-02-12T23:35:38.541Z,90.33
2018-02-12T23:38:06.120Z,90.34
2018-02-12T23:40:33.742Z,90.15
2018-02-12T23:43:01.359Z,89.50
2018-02-12T23:45:28.923Z,89.58
2018-02-12T23:47:56.546Z,89.41
2018-02-12T23:50:24.174Z,89.49
2018-02-12T23:52:51.731Z,89.63
2018-02-12T23:55:19.282Z,89.55
2018-02-12T23:57:46.834Z,89.55
